createdAt,value
2023-03-22T00:01:15.546Z,983
2023-03-22T00:03:16.850Z,982.9
2023-03-22T00:05:18.472Z,982.9
2023-03-22T00:07:20.163Z,982.9
2023-03-22T00:09:22.016Z,982.9
2023-03-22T00:11:23.884Z,982.9
2023-03-22T00:13:25.435Z,982.9
2023-03-22T00:15:27.370Z,982.8
2023-03-22T00:17:28.431Z,982.9
2023-03-22T00:19:29.901Z,982.9
2023-03-22T00:21:31.246Z,982.8
2023-03-22T00:23:32.480Z,982.8
2023-03-22T00:25:34.404Z,982.8
2023-03-22T00:27:35.610Z,982.7
2023-03-22T00:29:37.569Z,982.8
2023-03-22T00:31:38.940Z,982.7
2023-03-22T00:33:40.798Z,982.6
2023-03-22T00:35:42.430Z,982.7
2023-03-22T00:37:44.361Z,982.7
2023-03-22T00:41:46.814Z,982.6
2023-03-22T00:43:48.769Z,982.6
2023-03-22T00:45:50.224Z,982.4
2023-03-22T00:47:51.580Z,982.5
2023-03-22T00:51:54.860Z,982.4
2023-03-22T00:53:56.480Z,982.3
2023-03-22T00:55:58.123Z,982.4
2023-03-22T00:57:59.992Z,982.4
2023-03-22T01:00:01.777Z,982.4
2023-03-22T01:02:03.062Z,982.4
2023-03-22T01:04:05.173Z,982.5
2023-03-22T01:06:05.299Z,982.5
2023-03-22T01:08:06.840Z,982.4
2023-03-22T01:10:08.557Z,982.4
2023-03-22T01:12:09.851Z,982.4
2023-03-22T01:14:11.843Z,982.3
2023-03-22T01:16:13.632Z,982.3
2023-03-22T01:18:15.137Z,982.3
2023-03-22T01:20:16.555Z,982.3
2023-03-22T01:22:18.198Z,982.3
2023-03-22T01:24:19.948Z,982.1
2023-03-22T01:26:21.174Z,982.2
2023-03-22T01:28:22.845Z,982.3
2023-03-22T01:30:23.709Z,982.1
2023-03-22T01:34:26.309Z,982.1
2023-03-22T01:36:28.045Z,982
2023-03-22T01:40:30.434Z,982.1
2023-03-22T01:42:31.830Z,982.1
2023-03-22T01:44:32.804Z,982.1
2023-03-22T01:46:34.200Z,982.1
2023-03-22T01:48:43.479Z,982.1
2023-03-22T01:50:37.490Z,982
2023-03-22T01:52:38.759Z,982
2023-03-22T01:54:39.942Z,982
2023-03-22T01:56:41.295Z,982
2023-03-22T01:58:42.696Z,982
2023-03-22T02:00:44.492Z,981.9
2023-03-22T02:02:46.339Z,981.9
2023-03-22T02:04:47.850Z,981.9
2023-03-22T02:06:49.313Z,981.8
2023-03-22T02:08:51.015Z,981.8
2023-03-22T02:10:52.649Z,981.8
2023-03-22T02:12:54.221Z,981.8
2023-03-22T02:14:56.058Z,981.9
2023-03-22T02:16:57.321Z,981.7
2023-03-22T02:18:59.181Z,981.9
2023-03-22T02:21:02.392Z,981.8
2023-03-22T02:23:01.829Z,981.7
2023-03-22T02:25:02.667Z,981.8
2023-03-22T02:27:03.756Z,981.7
2023-03-22T02:29:05.292Z,981.7
2023-03-22T02:31:06.729Z,981.8
2023-03-22T02:33:07.816Z,981.6
2023-03-22T02:35:09.110Z,981.6
2023-03-22T02:37:10.468Z,981.7
2023-03-22T02:39:11.805Z,981.6
2023-03-22T02:41:13.545Z,981.7
2023-03-22T02:43:15.525Z,981.7
2023-03-22T02:45:17.185Z,981.7
2023-03-22T02:49:20.714Z,981.7
2023-03-22T02:51:22.442Z,981.7
2023-03-22T02:53:24.213Z,981.7
2023-03-22T02:55:25.900Z,981.6
2023-03-22T02:57:26.959Z,981.6
2023-03-22T02:59:28.915Z,981.6
2023-03-22T03:01:30.581Z,981.6
2023-03-22T03:03:32.189Z,981.6
2023-03-22T03:06:17.087Z,981.6
2023-03-22T03:08:18.776Z,981.7
2023-03-22T03:10:20.732Z,981.6
2023-03-22T03:12:22.390Z,981.8
2023-03-22T03:14:24.277Z,981.6
2023-03-22T03:16:26.051Z,981.7
2023-03-22T03:18:27.580Z,981.8
2023-03-22T03:20:29.253Z,981.7
2023-03-22T03:22:30.862Z,981.7
2023-03-22T03:26:33.958Z,981.6
2023-03-22T03:28:35.121Z,981.5
2023-03-22T03:30:36.968Z,981.7
2023-03-22T03:32:38.329Z,981.6
2023-03-22T03:36:41.795Z,981.7
2023-03-22T03:38:43.215Z,981.8
2023-03-22T03:40:45.247Z,981.7
2023-03-22T03:42:46.675Z,981.7
2023-03-22T03:44:48.083Z,981.7
2023-03-22T03:46:49.447Z,981.8
2023-03-22T03:48:51.401Z,981.8
2023-03-22T03:50:53.069Z,981.8
2023-03-22T03:52:54.216Z,981.9
2023-03-22T03:54:55.526Z,981.9
2023-03-22T03:56:56.624Z,981.8
2023-03-22T03:58:58.515Z,981.9
2023-03-22T04:01:00.160Z,981.8
2023-03-22T04:03:01.286Z,981.9
2023-03-22T04:05:02.351Z,981.8
2023-03-22T04:07:04.241Z,981.8
2023-03-22T04:09:05.759Z,981.8
2023-03-22T04:11:15.666Z,981.7
2023-03-22T04:13:09.440Z,981.7
2023-03-22T04:15:11.319Z,981.7
2023-03-22T04:17:12.619Z,981.8
2023-03-22T04:19:13.974Z,981.8
2023-03-22T04:21:15.840Z,981.8
2023-03-22T04:25:19.644Z,981.7
2023-03-22T04:27:20.825Z,981.7
2023-03-22T04:29:22.533Z,981.7
2023-03-22T04:31:24.292Z,981.7
2023-03-22T04:33:25.950Z,981.7
2023-03-22T04:35:26.945Z,981.6
2023-03-22T04:37:28.267Z,981.7
2023-03-22T04:39:29.778Z,981.6
2023-03-22T04:41:31.162Z,981.5
2023-03-22T04:43:32.664Z,981.5
2023-03-22T04:45:34.489Z,981.5
2023-03-22T04:47:36.235Z,981.4
2023-03-22T04:49:38.201Z,981.4
2023-03-22T04:51:39.497Z,981.4
2023-03-22T04:53:40.482Z,981.4
2023-03-22T04:57:42.947Z,981.4
2023-03-22T04:59:44.473Z,981.4
2023-03-22T05:01:45.512Z,981.3
2023-03-22T05:03:46.937Z,981.3
2023-03-22T05:05:48.501Z,981.3
2023-03-22T05:07:49.732Z,981.2
2023-03-22T05:09:51.431Z,981.2
2023-03-22T05:11:52.718Z,981.1
2023-03-22T05:13:53.847Z,981.2
2023-03-22T05:15:55.297Z,981.1
2023-03-22T05:17:56.932Z,981.1
2023-03-22T05:19:58.551Z,981.1
2023-03-22T05:22:00.075Z,981.1
2023-03-22T05:24:01.658Z,981.1
2023-03-22T05:26:02.978Z,981.1
2023-03-22T05:28:04.470Z,981.1
2023-03-22T05:30:06.168Z,981.2
2023-03-22T05:32:07.795Z,981.2
2023-03-22T05:34:09.748Z,981.1
2023-03-22T05:36:11.095Z,981.2
2023-03-22T05:40:14.027Z,981.1
2023-03-22T05:42:15.991Z,981.2
2023-03-22T05:44:17.703Z,981.2
2023-03-22T05:46:19.597Z,981.3
2023-03-22T05:48:20.876Z,981.2
2023-03-22T05:50:22.365Z,981.3
2023-03-22T05:52:24.330Z,981.2
2023-03-22T05:54:25.961Z,981.3
2023-03-22T05:56:27.880Z,981.3
2023-03-22T05:58:29.727Z,981.3
2023-03-22T06:00:31.244Z,981.2
2023-03-22T06:02:32.485Z,981.3
2023-03-22T06:04:34.275Z,981.4
2023-03-22T06:06:36.204Z,981.4
2023-03-22T06:08:37.864Z,981.4
2023-03-22T06:10:39.147Z,981.3
2023-03-22T06:12:40.172Z,981.4
2023-03-22T06:14:41.429Z,981.3
2023-03-22T06:16:42.425Z,981.4
2023-03-22T06:18:44.060Z,981.5
2023-03-22T06:22:47.167Z,981.4
2023-03-22T06:24:48.356Z,981.5
2023-03-22T06:26:49.782Z,981.4
2023-03-22T06:28:51.580Z,981.4
2023-03-22T06:30:52.896Z,981.4
2023-03-22T06:32:54.186Z,981.4
2023-03-22T06:34:56.050Z,981.5
2023-03-22T06:36:57.283Z,981.3
2023-03-22T06:38:58.651Z,981.4
2023-03-22T06:40:59.845Z,981.3
2023-03-22T06:43:03.961Z,981.4
2023-03-22T06:45:02.331Z,981.4
2023-03-22T06:47:03.299Z,981.5
2023-03-22T06:49:04.807Z,981.5
2023-03-22T06:51:06.321Z,981.4
2023-03-22T06:53:07.403Z,981.5
2023-03-22T06:55:09.279Z,981.4
2023-03-22T06:57:10.756Z,981.4
2023-03-22T06:59:11.855Z,981.7
2023-03-22T07:01:13.533Z,981.7
2023-03-22T07:03:14.609Z,981.6
2023-03-22T07:05:15.686Z,981.6
2023-03-22T07:07:17.059Z,981.6
2023-03-22T07:09:18.277Z,981.5
2023-03-22T07:11:19.893Z,981.5
2023-03-22T07:13:21.196Z,981.5
2023-03-22T07:15:22.514Z,981.6
2023-03-22T07:17:23.702Z,981.6
2023-03-22T07:21:25.678Z,981.6
2023-03-22T07:23:27.038Z,981.6
2023-03-22T07:25:28.120Z,981.6
2023-03-22T07:27:29.443Z,981.6
2023-03-22T07:29:30.747Z,981.4
2023-03-22T07:31:31.962Z,981.5
2023-03-22T07:33:33.109Z,981.5
2023-03-22T07:35:34.686Z,981.5
2023-03-22T07:37:36.243Z,981.4
2023-03-22T07:39:37.087Z,981.5
2023-03-22T07:41:38.386Z,981.3
2023-03-22T07:43:52.728Z,981.5
2023-03-22T07:47:42.120Z,981.4
2023-03-22T07:49:43.133Z,981.4
2023-03-22T07:51:44.253Z,981.4
2023-03-22T07:53:45.493Z,981.5
2023-03-22T07:57:48.993Z,981.5
2023-03-22T07:59:59.409Z,981.4
2023-03-22T08:01:52.065Z,981.4
2023-03-22T08:03:53.473Z,981.5
2023-03-22T08:05:54.352Z,981.4
2023-03-22T08:07:55.324Z,981.5
2023-03-22T08:09:57.785Z,981.5
2023-03-22T08:11:57.285Z,981.4
2023-03-22T08:13:58.202Z,981.4
2023-03-22T08:15:59.736Z,981.5
2023-03-22T08:18:01.237Z,981.5
2023-03-22T08:20:02.694Z,981.4
2023-03-22T08:22:04.368Z,981.5
2023-03-22T08:24:05.594Z,981.6
2023-03-22T08:26:07.311Z,981.5
2023-03-22T08:28:08.741Z,981.6
2023-03-22T08:30:10.914Z,981.6
2023-03-22T08:32:12.586Z,981.6
2023-03-22T08:34:13.425Z,981.6
2023-03-22T08:36:14.843Z,981.6
2023-03-22T08:38:15.946Z,981.6
2023-03-22T08:40:17.055Z,981.5
2023-03-22T08:42:18.159Z,981.6
2023-03-22T08:44:19.949Z,981.6
2023-03-22T08:46:21.084Z,981.5
2023-03-22T08:48:23.808Z,981.6
2023-03-22T08:50:24.990Z,981.5
2023-03-22T08:52:27.452Z,981.5
2023-03-22T08:54:28.848Z,981.5
2023-03-22T08:56:29.754Z,981.5
2023-03-22T08:58:31.591Z,981.6
2023-03-22T09:00:45.905Z,981.4
2023-03-22T09:02:33.952Z,981.4
2023-03-22T09:04:36.266Z,981.4
2023-03-22T09:06:37.105Z,981.4
2023-03-22T09:08:38.838Z,981.4
2023-03-22T09:10:40.500Z,981.3
2023-03-22T09:12:41.920Z,981.3
2023-03-22T09:14:43.867Z,981.4
2023-03-22T09:16:45.305Z,981.4
2023-03-22T09:18:46.992Z,981.4
2023-03-22T09:20:47.894Z,981.4
2023-03-22T09:22:49.489Z,981.5
2023-03-22T09:24:58.757Z,981.4
2023-03-22T09:26:59.851Z,981.4
2023-03-22T09:28:52.922Z,981.4
2023-03-22T09:30:54.122Z,981.3
2023-03-22T09:32:55.716Z,981.5
2023-03-22T09:35:15.442Z,981.5
2023-03-22T09:36:58.634Z,981.4
2023-03-22T09:38:59.851Z,981.3
2023-03-22T09:41:00.839Z,981.3
2023-03-22T09:43:01.904Z,981.3
2023-03-22T09:45:03.622Z,981.3
2023-03-22T09:47:04.639Z,981.2
2023-03-22T09:49:06.430Z,981.2
2023-03-22T09:50:11.370Z,981.1
2023-03-22T09:51:51.779Z,981.1
2023-03-22T09:53:52.663Z,981.2
2023-03-22T09:55:54.178Z,981.1
2023-03-22T09:58:03.348Z,981.1
2023-03-22T10:00:05.340Z,981.2
2023-03-22T10:01:57.804Z,981.3
2023-03-22T10:03:58.877Z,981.2
2023-03-22T10:05:59.696Z,981.3
2023-03-22T10:08:01.015Z,981.2
2023-03-22T10:10:02.157Z,981.1
2023-03-22T10:12:02.992Z,981.1
2023-03-22T10:14:13.578Z,981.2
2023-03-22T10:16:06.241Z,981.2
2023-03-22T10:18:07.947Z,981.3
2023-03-22T10:22:11.288Z,981.3
2023-03-22T10:24:13.035Z,981.1
2023-03-22T10:26:14.021Z,981.2
2023-03-22T10:28:15.448Z,981.3
2023-03-22T10:30:17.275Z,981.3
2023-03-22T10:32:18.746Z,981
2023-03-22T10:34:19.785Z,981.1
2023-03-22T10:36:21.316Z,981
2023-03-22T10:38:22.367Z,981.1
2023-03-22T10:40:23.718Z,981.1
2023-03-22T10:42:24.965Z,981.1
2023-03-22T10:44:26.722Z,981
2023-03-22T10:46:28.593Z,980.9
2023-03-22T10:48:29.758Z,981
2023-03-22T10:50:31.335Z,980.9
2023-03-22T10:52:32.673Z,980.8
2023-03-22T10:54:33.641Z,980.8
2023-03-22T10:56:34.533Z,980.9
2023-03-22T10:58:35.478Z,980.9
2023-03-22T11:00:39.374Z,980.8
2023-03-22T11:02:39.093Z,980.8
2023-03-22T11:04:40.108Z,980.8
2023-03-22T11:06:41.653Z,980.8
2023-03-22T11:08:43.070Z,980.8
2023-03-22T11:10:44.495Z,980.8
2023-03-22T11:12:45.979Z,980.7
2023-03-22T11:14:47.462Z,980.6
2023-03-22T11:16:48.444Z,980.6
2023-03-22T11:20:50.976Z,980.6
2023-03-22T11:22:52.476Z,980.7
2023-03-22T11:24:53.458Z,980.7
2023-03-22T11:26:55.166Z,980.7
2023-03-22T11:28:56.959Z,980.7
2023-03-22T11:30:58.774Z,980.7
2023-03-22T11:33:00.191Z,980.6
2023-03-22T11:35:01.055Z,980.6
2023-03-22T11:37:02.294Z,980.6
2023-03-22T11:39:04.127Z,980.7
2023-03-22T11:41:05.574Z,980.6
2023-03-22T11:43:06.902Z,980.5
2023-03-22T11:45:08.635Z,980.5
2023-03-22T11:47:09.492Z,980.5
2023-03-22T11:49:10.982Z,980.3
2023-03-22T11:51:12.565Z,980.4
2023-03-22T11:53:14.256Z,980.4
2023-03-22T11:55:15.224Z,980.2
2023-03-22T11:57:16.678Z,980.2
2023-03-22T11:59:17.927Z,980.2
2023-03-22T12:01:19.056Z,980.3
2023-03-22T12:03:20.220Z,980.2
2023-03-22T12:05:21.939Z,980.2
2023-03-22T12:07:23.363Z,980.2
2023-03-22T12:09:24.712Z,980.2
2023-03-22T12:11:25.661Z,980.1
2023-03-22T12:13:27.442Z,980.2
2023-03-22T12:15:29.999Z,980
2023-03-22T12:17:31.329Z,980.1
2023-03-22T12:19:32.740Z,980
2023-03-22T12:21:33.779Z,980.1
2023-03-22T12:23:35.679Z,979.9
2023-03-22T12:25:37.017Z,979.9
2023-03-22T12:29:39.518Z,979.9
2023-03-22T12:31:41.037Z,979.9
2023-03-22T12:33:41.978Z,979.9
2023-03-22T12:35:44.058Z,979.8
2023-03-22T12:39:46.715Z,979.9
2023-03-22T12:41:47.998Z,979.9
2023-03-22T12:43:49.060Z,979.8
2023-03-22T12:45:50.394Z,979.8
2023-03-22T12:47:52.055Z,979.7
2023-03-22T12:49:53.150Z,979.7
2023-03-22T12:51:54.748Z,979.7
2023-03-22T12:53:56.332Z,979.8
2023-03-22T12:55:57.492Z,979.7
2023-03-22T12:57:58.998Z,979.7
2023-03-22T13:00:00.807Z,979.6
2023-03-22T13:02:02.171Z,979.6
2023-03-22T13:04:03.630Z,979.5
2023-03-22T13:06:05.225Z,979.5
2023-03-22T13:08:06.416Z,979.6
2023-03-22T13:10:07.264Z,979.5
2023-03-22T13:12:08.217Z,979.6
2023-03-22T13:14:09.440Z,979.6
2023-03-22T13:16:10.352Z,979.5
2023-03-22T13:18:12.077Z,979.5
2023-03-22T13:20:13.053Z,979.5
2023-03-22T13:22:14.871Z,979.5
2023-03-22T13:24:15.717Z,979.5
2023-03-22T13:26:16.703Z,979.4
2023-03-22T13:28:18.203Z,979.4
2023-03-22T13:30:19.171Z,979.4
2023-03-22T13:32:20.490Z,979.4
2023-03-22T13:34:21.611Z,979.3
2023-03-22T13:36:22.689Z,979.3
2023-03-22T13:38:24.089Z,979.2
2023-03-22T13:40:25.232Z,979.3
2023-03-22T13:42:26.824Z,979.3
2023-03-22T13:44:28.456Z,979.2
2023-03-22T13:46:29.316Z,979.1
2023-03-22T13:48:31.222Z,979.2
2023-03-22T13:50:32.247Z,979.2
2023-03-22T13:52:33.615Z,979.1
2023-03-22T13:54:34.651Z,979
2023-03-22T13:56:35.551Z,979
2023-03-22T13:58:36.882Z,979
2023-03-22T14:00:38.058Z,979.1
2023-03-22T14:02:38.956Z,979
2023-03-22T14:04:40.543Z,979
2023-03-22T14:06:41.686Z,979
2023-03-22T14:08:43.242Z,978.8
2023-03-22T14:10:44.862Z,978.8
2023-03-22T14:12:45.988Z,978.9
2023-03-22T14:14:47.759Z,978.9
2023-03-22T14:16:48.881Z,978.9
2023-03-22T14:18:49.874Z,979
2023-03-22T14:20:51.316Z,978.9
2023-03-22T14:53:13.800Z,978.7
2023-03-22T14:57:16.730Z,978.7
2023-03-22T14:59:17.921Z,978.7
2023-03-22T15:03:20.159Z,978.7
2023-03-22T15:05:21.005Z,978.5
2023-03-22T15:09:23.114Z,978.6
2023-03-22T15:13:25.672Z,978.4
2023-03-22T15:15:27.280Z,978.4
2023-03-22T15:19:30.966Z,978.4
2023-03-22T15:21:31.795Z,978.4
2023-03-22T15:25:34.845Z,978.3
2023-03-22T15:29:37.421Z,978.3
2023-03-22T15:31:38.916Z,978.3
2023-03-22T15:35:41.892Z,978.4
2023-03-22T15:39:44.594Z,978.3
2023-03-22T15:41:45.449Z,978.4
2023-03-22T15:45:48.042Z,978.3
2023-03-22T15:47:49.338Z,978.4
2023-03-22T15:51:51.767Z,978.3
2023-03-22T15:55:53.669Z,978.2
2023-03-22T15:57:55.299Z,978.3
2023-03-22T16:01:58.544Z,978.4
2023-03-22T16:04:00.314Z,978.4
2023-03-22T16:08:02.240Z,978.4
2023-03-22T16:12:04.890Z,978.4
2023-03-22T16:14:06.413Z,978.4
2023-03-22T16:18:09.222Z,978.4
2023-03-22T16:22:12.485Z,978.4
2023-03-22T16:24:13.382Z,978.5
2023-03-22T16:28:16.346Z,978.4
2023-03-22T16:30:17.900Z,978.5
2023-03-22T16:32:19.299Z,978.4
2023-03-22T16:34:20.647Z,978.5
2023-03-22T16:39:07.610Z,978.4
2023-03-22T16:41:09.160Z,978.4
2023-03-22T16:45:11.177Z,978.5
2023-03-22T16:49:14.135Z,978.4
2023-03-22T16:51:15.069Z,978.5
2023-03-22T16:55:17.347Z,978.5
2023-03-22T16:57:19.140Z,978.5
2023-03-22T17:01:21.968Z,978.4
2023-03-22T17:05:24.648Z,978.5
2023-03-22T17:07:26.437Z,978.5
2023-03-22T17:11:29.132Z,978.4
2023-03-22T17:15:31.459Z,978.6
2023-03-22T17:17:33.317Z,978.6
2023-03-22T17:21:35.577Z,978.6
2023-03-22T17:23:37.173Z,978.6
2023-03-22T17:27:40.440Z,978.7
2023-03-22T17:33:45.197Z,978.8
2023-03-22T17:37:49.327Z,978.8
2023-03-22T17:43:52.769Z,978.9
2023-03-22T17:47:55.969Z,978.9
2023-03-22T17:49:57.072Z,978.9
2023-03-22T17:54:35.960Z,978.9
2023-03-22T17:58:24.020Z,979
2023-03-22T18:00:03.268Z,978.9
2023-03-22T18:04:05.401Z,979
2023-03-22T18:06:06.500Z,979
2023-03-22T18:10:09.763Z,979
2023-03-22T18:14:22.988Z,979
2023-03-22T18:16:14.407Z,979
2023-03-22T18:20:29.445Z,979
2023-03-22T18:22:19.618Z,979
2023-03-22T18:26:28.672Z,979.1
2023-03-22T18:30:25.690Z,979.1
2023-03-22T18:32:34.176Z,979
2023-03-22T18:36:29.536Z,979.2
2023-03-22T18:41:03.736Z,979.1
2023-03-22T18:42:41.230Z,979.1
2023-03-22T18:46:36.595Z,979
2023-03-22T18:48:37.745Z,979.1
2023-03-22T18:50:39.435Z,979
2023-03-22T18:53:06.268Z,979
2023-03-22T18:56:43.138Z,979
2023-03-22T18:58:44.041Z,979
2023-03-22T19:00:45.463Z,979
2023-03-22T19:02:46.844Z,979
2023-03-22T19:04:48.119Z,979.1
2023-03-22T19:08:51.504Z,979
2023-03-22T19:10:52.565Z,979
2023-03-22T19:12:53.574Z,979.1
2023-03-22T19:15:25.182Z,979
2023-03-22T19:18:58.375Z,979
2023-03-22T19:21:09.936Z,979
2023-03-22T19:25:02.388Z,978.9
2023-03-22T19:29:04.804Z,978.9
2023-03-22T19:31:06.480Z,978.9
2023-03-22T19:35:09.085Z,978.9
2023-03-22T19:39:13.332Z,978.9
2023-03-22T19:41:30.256Z,978.9
2023-03-22T19:45:15.289Z,978.9
2023-03-22T19:47:16.603Z,978.9
2023-03-22T19:51:19.405Z,978.9
2023-03-22T19:55:22.385Z,978.9
2023-03-22T19:57:24.264Z,978.9
2023-03-22T20:01:27.065Z,978.9
2023-03-22T20:03:28.053Z,978.9
2023-03-22T20:07:30.824Z,978.8
2023-03-22T20:11:41.677Z,978.8
2023-03-22T20:13:34.720Z,978.8
2023-03-22T20:17:37.020Z,978.8
2023-03-22T20:21:40.313Z,978.8
2023-03-22T20:23:42.073Z,978.8
2023-03-22T20:27:44.267Z,978.8
2023-03-22T20:29:45.301Z,978.8
2023-03-22T20:31:46.278Z,978.8
2023-03-22T20:33:48.040Z,978.7
2023-03-22T20:37:50.787Z,978.8
2023-03-22T20:39:52.693Z,978.8
2023-03-22T20:41:54.409Z,978.7
2023-03-22T20:43:55.801Z,978.8
2023-03-22T20:45:57.033Z,978.8
2023-03-22T20:50:00.220Z,978.6
2023-03-22T20:52:01.163Z,978.6
2023-03-22T20:54:02.926Z,978.7
2023-03-22T20:56:04.333Z,978.6
2023-03-22T21:00:07.393Z,978.7
2023-03-22T21:06:12.054Z,978.6
2023-03-22T21:10:14.045Z,978.7
2023-03-22T21:12:15.344Z,978.7
2023-03-22T21:16:18.767Z,978.7
2023-03-22T21:20:30.540Z,978.8
2023-03-22T21:22:22.796Z,978.7
2023-03-22T21:26:25.488Z,978.7
2023-03-22T21:28:26.488Z,978.8
2023-03-22T21:32:29.516Z,978.7
2023-03-22T21:36:32.553Z,978.6
2023-03-22T21:38:33.833Z,978.5
2023-03-22T21:42:36.957Z,978.6
2023-03-22T21:44:37.599Z,978.5
2023-03-22T21:48:40.448Z,978.6
2023-03-22T21:52:43.701Z,978.6
2023-03-22T21:54:45.437Z,978.7
2023-03-22T21:58:47.434Z,978.6
2023-03-22T22:02:50.054Z,978.6
2023-03-22T22:04:51.193Z,978.6
2023-03-22T22:08:54.400Z,978.7
2023-03-22T22:10:55.857Z,978.7
2023-03-22T22:14:59.283Z,978.7
2023-03-22T22:19:02.064Z,978.6
2023-03-22T22:21:03.241Z,978.5
2023-03-22T22:25:06.370Z,978.7
2023-03-22T22:27:07.712Z,978.7
2023-03-22T22:31:10.505Z,978.6
2023-03-22T22:35:13.615Z,978.5
2023-03-22T22:37:15.367Z,978.5
2023-03-22T22:41:18.962Z,978.6
2023-03-22T22:43:20.554Z,978.6
2023-03-22T22:47:23.497Z,978.6
2023-03-22T22:51:26.182Z,978.5
2023-03-22T22:53:27.202Z,978.6
2023-03-22T22:57:29.906Z,978.6
2023-03-22T22:59:31.194Z,978.7
2023-03-22T23:03:34.431Z,978.7
2023-03-22T23:07:36.413Z,978.7
2023-03-22T23:09:37.949Z,978.7
2023-03-22T23:13:41.348Z,978.7
2023-03-22T23:17:44.348Z,978.7
2023-03-22T23:19:45.903Z,978.6
2023-03-22T23:24:32.988Z,978.4
2023-03-22T23:28:35.659Z,978.6
2023-03-22T23:30:36.868Z,978.6
2023-03-22T23:34:39.468Z,978.6
2023-03-22T23:36:41.070Z,978.5
2023-03-22T23:40:44.148Z,978.5
2023-03-22T23:44:47.217Z,978.5
2023-03-22T23:46:48.397Z,978.4
2023-03-22T23:50:51.786Z,978.4
2023-03-22T23:54:55.022Z,978.2
2023-03-22T23:56:56.230Z,978.2
